sensor_id;sensor_type;location;lat;lon;timestamp;P1;durP1;ratioP1;P2;durP2;ratioP2
65279;SDS011;51878;55.748;48.742;2022-07-11T00:01:51;6.00;;;3.70;;
65279;SDS011;51878;55.748;48.742;2022-07-11T00:04:18;6.57;;;4.10;;
65279;SDS011;51878;55.748;48.742;2022-07-11T00:06:45;3.97;;;3.28;;
65279;SDS011;51878;55.748;48.742;2022-07-11T00:09:12;4.53;;;3.55;;
65279;SDS011;51878;55.748;48.742;2022-07-11T00:11:40;5.68;;;3.22;;
65279;SDS011;51878;55.748;48.742;2022-07-11T00:14:07;5.13;;;3.60;;
65279;SDS011;51878;55.748;48.742;2022-07-11T00:16:34;4.22;;;3.47;;
65279;SDS011;51878;55.748;48.742;2022-07-11T00:19:01;4.90;;;3.60;;
65279;SDS011;51878;55.748;48.742;2022-07-11T00:21:28;5.72;;;3.60;;
65279;SDS011;51878;55.748;48.742;2022-07-11T00:23:55;6.63;;;3.60;;
65279;SDS011;51878;55.748;48.742;2022-07-11T00:26:23;4.80;;;3.65;;
65279;SDS011;51878;55.748;48.742;2022-07-11T00:28:50;7.78;;;3.67;;
65279;SDS011;51878;55.748;48.742;2022-07-11T00:31:17;4.43;;;3.65;;
65279;SDS011;51878;55.748;48.742;2022-07-11T00:33:44;5.28;;;3.88;;
65279;SDS011;51878;55.748;48.742;2022-07-11T00:36:12;7.55;;;3.80;;
65279;SDS011;51878;55.748;48.742;2022-07-11T00:38:39;6.82;;;3.88;;
65279;SDS011;51878;55.748;48.742;2022-07-11T00:41:07;5.05;;;3.63;;
65279;SDS011;51878;55.748;48.742;2022-07-11T00:43:35;5.20;;;3.70;;
65279;SDS011;51878;55.748;48.742;2022-07-11T00:46:04;6.40;;;4.20;;
65279;SDS011;51878;55.748;48.742;2022-07-11T00:48:31;4.85;;;3.60;;
65279;SDS011;51878;55.748;48.742;2022-07-11T00:50:59;7.13;;;4.20;;
65279;SDS011;51878;55.748;48.742;2022-07-11T00:53:29;6.18;;;3.70;;
65279;SDS011;51878;55.748;48.742;2022-07-11T00:55:57;8.68;;;4.20;;
65279;SDS011;51878;55.748;48.742;2022-07-11T00:58:24;5.95;;;3.95;;
65279;SDS011;51878;55.748;48.742;2022-07-11T01:00:52;7.30;;;4.03;;
65279;SDS011;51878;55.748;48.742;2022-07-11T01:03:19;5.18;;;3.55;;
65279;SDS011;51878;55.748;48.742;2022-07-11T01:05:46;6.93;;;3.85;;
65279;SDS011;51878;55.748;48.742;2022-07-11T01:08:14;6.03;;;3.97;;
65279;SDS011;51878;55.748;48.742;2022-07-11T01:10:42;7.07;;;3.75;;
65279;SDS011;51878;55.748;48.742;2022-07-11T01:13:09;5.07;;;3.47;;
65279;SDS011;51878;55.748;48.742;2022-07-11T01:15:37;6.50;;;3.60;;
65279;SDS011;51878;55.748;48.742;2022-07-11T01:18:05;5.63;;;3.53;;
65279;SDS011;51878;55.748;48.742;2022-07-11T01:20:32;5.57;;;3.88;;
65279;SDS011;51878;55.748;48.742;2022-07-11T01:23:03;6.57;;;3.80;;
65279;SDS011;51878;55.748;48.742;2022-07-11T01:25:32;4.70;;;3.13;;
65279;SDS011;51878;55.748;48.742;2022-07-11T01:28:02;4.97;;;3.20;;
65279;SDS011;51878;55.748;48.742;2022-07-11T01:30:31;3.92;;;3.00;;
65279;SDS011;51878;55.748;48.742;2022-07-11T01:32:59;4.95;;;3.20;;
65279;SDS011;51878;55.748;48.742;2022-07-11T01:35:28;3.22;;;2.92;;
65279;SDS011;51878;55.748;48.742;2022-07-11T01:37:55;4.32;;;3.25;;
65279;SDS011;51878;55.748;48.742;2022-07-11T01:40:28;5.38;;;3.13;;
65279;SDS011;51878;55.748;48.742;2022-07-11T01:42:55;4.47;;;3.03;;
65279;SDS011;51878;55.748;48.742;2022-07-11T01:45:22;5.97;;;3.58;;
65279;SDS011;51878;55.748;48.742;2022-07-11T01:47:49;4.57;;;3.20;;
65279;SDS011;51878;55.748;48.742;2022-07-11T01:50:17;4.13;;;3.35;;
65279;SDS011;51878;55.748;48.742;2022-07-11T01:52:44;6.22;;;4.35;;
65279;SDS011;51878;55.748;48.742;2022-07-11T01:55:11;6.75;;;4.43;;
65279;SDS011;51878;55.748;48.742;2022-07-11T01:57:39;9.45;;;4.85;;
65279;SDS011;51878;55.748;48.742;2022-07-11T02:00:06;7.32;;;4.40;;
65279;SDS011;51878;55.748;48.742;2022-07-11T02:02:37;6.70;;;4.32;;
65279;SDS011;51878;55.748;48.742;2022-07-11T02:05:04;5.45;;;4.57;;
65279;SDS011;51878;55.748;48.742;2022-07-11T02:07:32;6.53;;;4.28;;
65279;SDS011;51878;55.748;48.742;2022-07-11T02:10:17;8.00;;;4.53;;
65279;SDS011;51878;55.748;48.742;2022-07-11T02:12:44;6.30;;;4.30;;
65279;SDS011;51878;55.748;48.742;2022-07-11T02:15:11;6.47;;;4.25;;
65279;SDS011;51878;55.748;48.742;2022-07-11T02:17:38;6.68;;;4.20;;
65279;SDS011;51878;55.748;48.742;2022-07-11T02:20:06;6.28;;;4.07;;
65279;SDS011;51878;55.748;48.742;2022-07-11T02:22:34;6.82;;;4.18;;
65279;SDS011;51878;55.748;48.742;2022-07-11T02:25:01;5.57;;;4.28;;
65279;SDS011;51878;55.748;48.742;2022-07-11T02:27:28;5.70;;;4.30;;
65279;SDS011;51878;55.748;48.742;2022-07-11T02:29:55;7.82;;;4.68;;
65279;SDS011;51878;55.748;48.742;2022-07-11T02:32:22;4.85;;;3.90;;
65279;SDS011;51878;55.748;48.742;2022-07-11T02:34:49;5.80;;;4.60;;
65279;SDS011;51878;55.748;48.742;2022-07-11T02:37:16;6.55;;;4.32;;
65279;SDS011;51878;55.748;48.742;2022-07-11T02:39:46;7.07;;;4.82;;
65279;SDS011;51878;55.748;48.742;2022-07-11T02:42:13;6.00;;;4.13;;
65279;SDS011;51878;55.748;48.742;2022-07-11T02:44:40;5.82;;;4.30;;
65279;SDS011;51878;55.748;48.742;2022-07-11T02:47:07;5.55;;;4.40;;
65279;SDS011;51878;55.748;48.742;2022-07-11T02:49:35;6.05;;;4.40;;
65279;SDS011;51878;55.748;48.742;2022-07-11T02:52:02;6.25;;;4.15;;
65279;SDS011;51878;55.748;48.742;2022-07-11T02:54:29;7.28;;;4.22;;
65279;SDS011;51878;55.748;48.742;2022-07-11T02:56:56;6.28;;;4.43;;
65279;SDS011;51878;55.748;48.742;2022-07-11T02:59:24;6.28;;;4.95;;
65279;SDS011;51878;55.748;48.742;2022-07-11T03:01:54;10.77;;;4.68;;
65279;SDS011;51878;55.748;48.742;2022-07-11T03:04:21;6.25;;;4.55;;
65279;SDS011;51878;55.748;48.742;2022-07-11T03:06:48;6.47;;;4.57;;
65279;SDS011;51878;55.748;48.742;2022-07-11T03:09:15;7.15;;;4.53;;
65279;SDS011;51878;55.748;48.742;2022-07-11T03:11:42;8.05;;;4.60;;
65279;SDS011;51878;55.748;48.742;2022-07-11T03:14:09;6.90;;;4.80;;
65279;SDS011;51878;55.748;48.742;2022-07-11T03:16:36;8.30;;;4.95;;
65279;SDS011;51878;55.748;48.742;2022-07-11T03:19:03;6.10;;;5.15;;
65279;SDS011;51878;55.748;48.742;2022-07-11T03:21:30;9.45;;;5.32;;
65279;SDS011;51878;55.748;48.742;2022-07-11T03:23:58;7.35;;;5.40;;
65279;SDS011;51878;55.748;48.742;2022-07-11T03:26:25;7.28;;;5.18;;
65279;SDS011;51878;55.748;48.742;2022-07-11T03:29:08;7.32;;;4.93;;
65279;SDS011;51878;55.748;48.742;2022-07-11T03:31:35;8.68;;;5.25;;
65279;SDS011;51878;55.748;48.742;2022-07-11T03:34:02;8.75;;;5.88;;
65279;SDS011;51878;55.748;48.742;2022-07-11T03:36:29;8.88;;;5.45;;
65279;SDS011;51878;55.748;48.742;2022-07-11T03:38:57;7.05;;;5.47;;
65279;SDS011;51878;55.748;48.742;2022-07-11T03:41:25;12.48;;;5.97;;
65279;SDS011;51878;55.748;48.742;2022-07-11T03:43:52;8.50;;;6.00;;
65279;SDS011;51878;55.748;48.742;2022-07-11T03:46:19;9.98;;;5.82;;
65279;SDS011;51878;55.748;48.742;2022-07-11T03:48:47;11.75;;;6.05;;
65279;SDS011;51878;55.748;48.742;2022-07-11T03:51:14;11.35;;;6.47;;
65279;SDS011;51878;55.748;48.742;2022-07-11T03:54:00;6.47;;;5.72;;
65279;SDS011;51878;55.748;48.742;2022-07-11T03:56:27;11.50;;;6.00;;
65279;SDS011;51878;55.748;48.742;2022-07-11T03:58:54;7.80;;;6.22;;
65279;SDS011;51878;55.748;48.742;2022-07-11T04:01:21;8.48;;;5.55;;
65279;SDS011;51878;55.748;48.742;2022-07-11T04:03:48;18.02;;;8.57;;
65279;SDS011;51878;55.748;48.742;2022-07-11T04:06:16;18.50;;;5.95;;
65279;SDS011;51878;55.748;48.742;2022-07-11T04:08:43;9.43;;;5.60;;
65279;SDS011;51878;55.748;48.742;2022-07-11T04:11:10;9.02;;;6.38;;
65279;SDS011;51878;55.748;48.742;2022-07-11T04:13:37;12.50;;;5.57;;
65279;SDS011;51878;55.748;48.742;2022-07-11T04:16:05;12.50;;;5.57;;
65279;SDS011;51878;55.748;48.742;2022-07-11T04:18:50;9.93;;;5.70;;
65279;SDS011;51878;55.748;48.742;2022-07-11T04:21:17;9.05;;;5.72;;
65279;SDS011;51878;55.748;48.742;2022-07-11T04:23:45;9.18;;;6.57;;
65279;SDS011;51878;55.748;48.742;2022-07-11T04:26:12;9.20;;;5.88;;
65279;SDS011;51878;55.748;48.742;2022-07-11T04:28:39;13.27;;;6.18;;
65279;SDS011;51878;55.748;48.742;2022-07-11T04:31:06;10.02;;;6.15;;
65279;SDS011;51878;55.748;48.742;2022-07-11T04:33:34;11.00;;;5.35;;
65279;SDS011;51878;55.748;48.742;2022-07-11T04:36:01;6.82;;;5.30;;
65279;SDS011;51878;55.748;48.742;2022-07-11T04:38:28;8.57;;;5.72;;
65279;SDS011;51878;55.748;48.742;2022-07-11T04:40:55;10.65;;;5.82;;
65279;SDS011;51878;55.748;48.742;2022-07-11T04:43:26;10.02;;;5.40;;
65279;SDS011;51878;55.748;48.742;2022-07-11T04:45:54;10.68;;;5.30;;
65279;SDS011;51878;55.748;48.742;2022-07-11T04:48:25;8.70;;;5.25;;
65279;SDS011;51878;55.748;48.742;2022-07-11T04:50:53;6.93;;;5.20;;
65279;SDS011;51878;55.748;48.742;2022-07-11T04:53:20;8.57;;;4.90;;
65279;SDS011;51878;55.748;48.742;2022-07-11T04:55:47;5.97;;;5.03;;
65279;SDS011;51878;55.748;48.742;2022-07-11T04:58:14;10.27;;;5.18;;
65279;SDS011;51878;55.748;48.742;2022-07-11T05:00:42;6.93;;;4.82;;
65279;SDS011;51878;55.748;48.742;2022-07-11T05:03:09;7.97;;;4.97;;
65279;SDS011;51878;55.748;48.742;2022-07-11T05:05:36;12.32;;;5.00;;
65279;SDS011;51878;55.748;48.742;2022-07-11T05:08:03;9.63;;;5.30;;
65279;SDS011;51878;55.748;48.742;2022-07-11T05:10:31;7.50;;;4.75;;
65279;SDS011;51878;55.748;48.742;2022-07-11T05:13:00;7.78;;;5.05;;
65279;SDS011;51878;55.748;48.742;2022-07-11T05:15:27;8.65;;;5.70;;
65279;SDS011;51878;55.748;48.742;2022-07-11T05:17:54;6.65;;;5.60;;
65279;SDS011;51878;55.748;48.742;2022-07-11T05:20:21;7.30;;;5.07;;
65279;SDS011;51878;55.748;48.742;2022-07-11T05:22:48;6.50;;;4.82;;
65279;SDS011;51878;55.748;48.742;2022-07-11T05:25:16;7.10;;;5.70;;
65279;SDS011;51878;55.748;48.742;2022-07-11T05:27:43;6.53;;;5.00;;
65279;SDS011;51878;55.748;48.742;2022-07-11T05:30:13;10.32;;;5.40;;
65279;SDS011;51878;55.748;48.742;2022-07-11T05:32:40;7.45;;;5.05;;
65279;SDS011;51878;55.748;48.742;2022-07-11T05:35:07;9.43;;;5.40;;
65279;SDS011;51878;55.748;48.742;2022-07-11T05:37:35;10.95;;;5.80;;
65279;SDS011;51878;55.748;48.742;2022-07-11T05:40:02;6.65;;;5.20;;
65279;SDS011;51878;55.748;48.742;2022-07-11T05:42:32;9.52;;;5.72;;
65279;SDS011;51878;55.748;48.742;2022-07-11T05:44:59;7.97;;;5.55;;
65279;SDS011;51878;55.748;48.742;2022-07-11T05:47:26;11.50;;;6.68;;
65279;SDS011;51878;55.748;48.742;2022-07-11T05:49:53;11.55;;;6.40;;
65279;SDS011;51878;55.748;48.742;2022-07-11T05:52:20;11.82;;;6.10;;
65279;SDS011;51878;55.748;48.742;2022-07-11T05:54:47;8.40;;;4.97;;
65279;SDS011;51878;55.748;48.742;2022-07-11T05:57:14;6.13;;;5.20;;
65279;SDS011;51878;55.748;48.742;2022-07-11T05:59:42;11.30;;;5.38;;
65279;SDS011;51878;55.748;48.742;2022-07-11T06:02:12;10.98;;;5.22;;
65279;SDS011;51878;55.748;48.742;2022-07-11T06:04:39;6.35;;;4.72;;
65279;SDS011;51878;55.748;48.742;2022-07-11T06:07:09;6.75;;;4.78;;
65279;SDS011;51878;55.748;48.742;2022-07-11T06:09:38;8.23;;;4.90;;
65279;SDS011;51878;55.748;48.742;2022-07-11T06:12:05;9.80;;;4.22;;
65279;SDS011;51878;55.748;48.742;2022-07-11T06:14:33;23.15;;;4.78;;
65279;SDS011;51878;55.748;48.742;2022-07-11T06:17:00;6.43;;;4.40;;
65279;SDS011;51878;55.748;48.742;2022-07-11T06:19:27;8.23;;;4.43;;
65279;SDS011;51878;55.748;48.742;2022-07-11T06:21:55;6.30;;;3.95;;
65279;SDS011;51878;55.748;48.742;2022-07-11T06:24:22;7.07;;;4.07;;
65279;SDS011;51878;55.748;48.742;2022-07-11T06:26:49;5.63;;;4.13;;
65279;SDS011;51878;55.748;48.742;2022-07-11T06:29:16;5.80;;;3.97;;
65279;SDS011;51878;55.748;48.742;2022-07-11T06:31:53;4.90;;;3.90;;
65279;SDS011;51878;55.748;48.742;2022-07-11T06:37:36;6.72;;;3.72;;
65279;SDS011;51878;55.748;48.742;2022-07-11T06:40:09;3.60;;;3.17;;
65279;SDS011;51878;55.748;48.742;2022-07-11T06:46:31;8.82;;;3.42;;
65279;SDS011;51878;55.748;48.742;2022-07-11T06:49:29;5.25;;;3.25;;
65279;SDS011;51878;55.748;48.742;2022-07-11T06:52:02;5.60;;;2.92;;
65279;SDS011;51878;55.748;48.742;2022-07-11T07:02:10;7.40;;;3.15;;
65279;SDS011;51878;55.748;48.742;2022-07-11T07:04:37;5.28;;;2.60;;
65279;SDS011;51878;55.748;48.742;2022-07-11T07:07:04;6.32;;;3.00;;
65279;SDS011;51878;55.748;48.742;2022-07-11T07:09:31;7.25;;;2.70;;
65279;SDS011;51878;55.748;48.742;2022-07-11T07:11:58;4.75;;;2.58;;
65279;SDS011;51878;55.748;48.742;2022-07-11T07:14:26;5.68;;;2.78;;
65279;SDS011;51878;55.748;48.742;2022-07-11T07:16:53;7.40;;;2.75;;
65279;SDS011;51878;55.748;48.742;2022-07-11T07:19:25;4.57;;;2.88;;
65279;SDS011;51878;55.748;48.742;2022-07-11T07:21:52;3.80;;;2.83;;
65279;SDS011;51878;55.748;48.742;2022-07-11T07:24:19;7.47;;;2.70;;
65279;SDS011;51878;55.748;48.742;2022-07-11T07:26:46;5.55;;;2.83;;
65279;SDS011;51878;55.748;48.742;2022-07-11T07:29:14;6.20;;;2.60;;
65279;SDS011;51878;55.748;48.742;2022-07-11T07:31:41;11.45;;;2.83;;
65279;SDS011;51878;55.748;48.742;2022-07-11T07:34:08;5.63;;;3.00;;
65279;SDS011;51878;55.748;48.742;2022-07-11T07:36:36;4.32;;;2.70;;
65279;SDS011;51878;55.748;48.742;2022-07-11T07:39:03;6.22;;;2.97;;
65279;SDS011;51878;55.748;48.742;2022-07-11T07:41:33;7.22;;;2.97;;
65279;SDS011;51878;55.748;48.742;2022-07-11T07:44:00;5.78;;;2.72;;
65279;SDS011;51878;55.748;48.742;2022-07-11T07:46:28;9.40;;;3.13;;
65279;SDS011;51878;55.748;48.742;2022-07-11T07:48:55;5.50;;;2.80;;
65279;SDS011;51878;55.748;48.742;2022-07-11T07:51:23;5.00;;;2.72;;
65279;SDS011;51878;55.748;48.742;2022-07-11T07:53:50;5.28;;;2.95;;
65279;SDS011;51878;55.748;48.742;2022-07-11T07:56:22;5.60;;;3.22;;
65279;SDS011;51878;55.748;48.742;2022-07-11T07:58:49;4.22;;;3.10;;
65279;SDS011;51878;55.748;48.742;2022-07-11T08:01:18;7.80;;;3.28;;
65279;SDS011;51878;55.748;48.742;2022-07-11T08:04:07;6.30;;;3.25;;
65279;SDS011;51878;55.748;48.742;2022-07-11T08:06:38;5.78;;;3.35;;
65279;SDS011;51878;55.748;48.742;2022-07-11T08:09:06;6.75;;;3.88;;
65279;SDS011;51878;55.748;48.742;2022-07-11T08:11:34;5.80;;;4.20;;
65279;SDS011;51878;55.748;48.742;2022-07-11T08:14:02;8.82;;;4.20;;
65279;SDS011;51878;55.748;48.742;2022-07-11T08:16:31;6.57;;;4.38;;
65279;SDS011;51878;55.748;48.742;2022-07-11T08:18:59;5.25;;;4.43;;
65279;SDS011;51878;55.748;48.742;2022-07-11T08:21:30;8.13;;;5.05;;
65279;SDS011;51878;55.748;48.742;2022-07-11T08:23:59;6.88;;;5.00;;
65279;SDS011;51878;55.748;48.742;2022-07-11T08:26:26;13.55;;;5.75;;
65279;SDS011;51878;55.748;48.742;2022-07-11T08:28:59;12.07;;;5.43;;
65279;SDS011;51878;55.748;48.742;2022-07-11T08:31:29;9.43;;;5.50;;
65279;SDS011;51878;55.748;48.742;2022-07-11T08:34:06;8.27;;;5.90;;
65279;SDS011;51878;55.748;48.742;2022-07-11T08:36:41;6.57;;;5.35;;
65279;SDS011;51878;55.748;48.742;2022-07-11T08:39:08;6.57;;;5.82;;
65279;SDS011;51878;55.748;48.742;2022-07-11T08:41:36;8.82;;;6.00;;
65279;SDS011;51878;55.748;48.742;2022-07-11T08:44:10;8.52;;;5.47;;
65279;SDS011;51878;55.748;48.742;2022-07-11T08:46:39;7.65;;;5.72;;
65279;SDS011;51878;55.748;48.742;2022-07-11T08:49:11;7.85;;;5.45;;
65279;SDS011;51878;55.748;48.742;2022-07-11T08:51:39;7.45;;;5.32;;
65279;SDS011;51878;55.748;48.742;2022-07-11T08:54:08;9.43;;;5.80;;
65279;SDS011;51878;55.748;48.742;2022-07-11T08:56:38;10.07;;;5.72;;
65279;SDS011;51878;55.748;48.742;2022-07-11T08:59:06;10.38;;;5.85;;
65279;SDS011;51878;55.748;48.742;2022-07-11T09:01:34;7.00;;;5.47;;
65279;SDS011;51878;55.748;48.742;2022-07-11T09:04:07;11.87;;;6.53;;
65279;SDS011;51878;55.748;48.742;2022-07-11T09:06:35;10.07;;;5.70;;
65279;SDS011;51878;55.748;48.742;2022-07-11T09:09:02;6.70;;;5.97;;
65279;SDS011;51878;55.748;48.742;2022-07-11T09:11:47;7.05;;;6.13;;
65279;SDS011;51878;55.748;48.742;2022-07-11T09:14:23;6.80;;;5.95;;
65279;SDS011;51878;55.748;48.742;2022-07-11T09:17:01;8.98;;;6.38;;
65279;SDS011;51878;55.748;48.742;2022-07-11T09:19:30;6.55;;;5.80;;
65279;SDS011;51878;55.748;48.742;2022-07-11T09:22:00;6.97;;;6.22;;
65279;SDS011;51878;55.748;48.742;2022-07-11T09:24:56;8.35;;;6.25;;
65279;SDS011;51878;55.748;48.742;2022-07-11T09:27:52;8.80;;;6.07;;
65279;SDS011;51878;55.748;48.742;2022-07-11T09:30:28;7.43;;;6.30;;
65279;SDS011;51878;55.748;48.742;2022-07-11T09:33:00;11.35;;;6.57;;
65279;SDS011;51878;55.748;48.742;2022-07-11T09:35:32;11.32;;;6.00;;
65279;SDS011;51878;55.748;48.742;2022-07-11T09:38:07;7.80;;;6.47;;
65279;SDS011;51878;55.748;48.742;2022-07-11T09:40:36;8.95;;;6.30;;
65279;SDS011;51878;55.748;48.742;2022-07-11T09:43:04;9.15;;;6.40;;
65279;SDS011;51878;55.748;48.742;2022-07-11T09:45:32;11.80;;;6.78;;
65279;SDS011;51878;55.748;48.742;2022-07-11T09:48:01;7.88;;;6.35;;
65279;SDS011;51878;55.748;48.742;2022-07-11T09:50:37;13.40;;;6.40;;
65279;SDS011;51878;55.748;48.742;2022-07-11T09:53:07;7.22;;;6.07;;
65279;SDS011;51878;55.748;48.742;2022-07-11T09:55:40;12.85;;;6.20;;
65279;SDS011;51878;55.748;48.742;2022-07-11T09:58:18;10.63;;;6.55;;
65279;SDS011;51878;55.748;48.742;2022-07-11T10:00:49;8.77;;;6.35;;
65279;SDS011;51878;55.748;48.742;2022-07-11T10:03:17;9.35;;;6.80;;
65279;SDS011;51878;55.748;48.742;2022-07-11T10:06:08;12.30;;;6.97;;
65279;SDS011;51878;55.748;48.742;2022-07-11T10:08:35;9.00;;;6.63;;
65279;SDS011;51878;55.748;48.742;2022-07-11T10:11:03;10.55;;;6.80;;
65279;SDS011;51878;55.748;48.742;2022-07-11T10:13:30;10.82;;;7.22;;
65279;SDS011;51878;55.748;48.742;2022-07-11T10:15:58;18.38;;;7.00;;
65279;SDS011;51878;55.748;48.742;2022-07-11T10:21:07;12.23;;;7.45;;
65279;SDS011;51878;55.748;48.742;2022-07-11T10:26:12;16.00;;;7.32;;
65279;SDS011;51878;55.748;48.742;2022-07-11T10:28:48;11.18;;;6.93;;
65279;SDS011;51878;55.748;48.742;2022-07-11T10:31:20;14.00;;;7.10;;
65279;SDS011;51878;55.748;48.742;2022-07-11T10:34:02;13.40;;;7.47;;
65279;SDS011;51878;55.748;48.742;2022-07-11T10:36:45;10.60;;;7.43;;
65279;SDS011;51878;55.748;48.742;2022-07-11T10:39:16;10.57;;;7.40;;
65279;SDS011;51878;55.748;48.742;2022-07-11T10:41:45;11.73;;;7.00;;
65279;SDS011;51878;55.748;48.742;2022-07-11T10:44:12;11.07;;;6.68;;
65279;SDS011;51878;55.748;48.742;2022-07-11T10:46:40;11.95;;;6.90;;
65279;SDS011;51878;55.748;48.742;2022-07-11T10:51:50;9.40;;;7.43;;
65279;SDS011;51878;55.748;48.742;2022-07-11T10:59:59;8.35;;;7.53;;
65279;SDS011;51878;55.748;48.742;2022-07-11T11:02:58;8.23;;;7.40;;
65279;SDS011;51878;55.748;48.742;2022-07-11T11:06:01;9.50;;;7.00;;
65279;SDS011;51878;55.748;48.742;2022-07-11T11:11:06;8.77;;;7.22;;
65279;SDS011;51878;55.748;48.742;2022-07-11T11:16:42;7.90;;;7.20;;
65279;SDS011;51878;55.748;48.742;2022-07-11T11:22:14;9.85;;;7.13;;
65279;SDS011;51878;55.748;48.742;2022-07-11T11:24:43;12.18;;;6.90;;
65279;SDS011;51878;55.748;48.742;2022-07-11T11:27:31;12.88;;;7.07;;
65279;SDS011;51878;55.748;48.742;2022-07-11T11:29:59;9.63;;;7.15;;
65279;SDS011;51878;55.748;48.742;2022-07-11T11:32:31;9.25;;;7.30;;
65279;SDS011;51878;55.748;48.742;2022-07-11T11:35:00;10.18;;;6.75;;
65279;SDS011;51878;55.748;48.742;2022-07-11T11:37:28;11.07;;;7.50;;
65279;SDS011;51878;55.748;48.742;2022-07-11T11:39:58;10.23;;;7.25;;
65279;SDS011;51878;55.748;48.742;2022-07-11T11:42:29;12.93;;;7.53;;
65279;SDS011;51878;55.748;48.742;2022-07-11T11:44:58;8.65;;;7.47;;
65279;SDS011;51878;55.748;48.742;2022-07-11T11:47:29;8.27;;;7.45;;
65279;SDS011;51878;55.748;48.742;2022-07-11T11:49:57;12.45;;;7.55;;
65279;SDS011;51878;55.748;48.742;2022-07-11T11:52:26;11.73;;;7.78;;
65279;SDS011;51878;55.748;48.742;2022-07-11T11:55:02;12.50;;;7.30;;
65279;SDS011;51878;55.748;48.742;2022-07-11T11:57:30;8.15;;;7.35;;
65279;SDS011;51878;55.748;48.742;2022-07-11T11:59:58;7.80;;;7.05;;
65279;SDS011;51878;55.748;48.742;2022-07-11T12:02:29;10.40;;;7.30;;
65279;SDS011;51878;55.748;48.742;2022-07-11T12:04:57;8.15;;;7.35;;
65279;SDS011;51878;55.748;48.742;2022-07-11T12:07:26;9.45;;;7.43;;
65279;SDS011;51878;55.748;48.742;2022-07-11T12:09:55;9.93;;;7.80;;
65279;SDS011;51878;55.748;48.742;2022-07-11T12:12:26;7.97;;;7.20;;
65279;SDS011;51878;55.748;48.742;2022-07-11T12:18:03;8.50;;;7.55;;
65279;SDS011;51878;55.748;48.742;2022-07-11T12:20:35;11.05;;;7.05;;
65279;SDS011;51878;55.748;48.742;2022-07-11T12:23:05;12.07;;;7.63;;
65279;SDS011;51878;55.748;48.742;2022-07-11T12:25:39;19.10;;;8.18;;
65279;SDS011;51878;55.748;48.742;2022-07-11T12:28:06;10.90;;;7.18;;
65279;SDS011;51878;55.748;48.742;2022-07-11T12:30:35;8.15;;;7.28;;
65279;SDS011;51878;55.748;48.742;2022-07-11T12:33:12;11.95;;;7.68;;
65279;SDS011;51878;55.748;48.742;2022-07-11T12:36:00;8.27;;;6.90;;
65279;SDS011;51878;55.748;48.742;2022-07-11T12:41:15;9.55;;;6.55;;
65279;SDS011;51878;55.748;48.742;2022-07-11T12:43:49;7.70;;;6.90;;
65279;SDS011;51878;55.748;48.742;2022-07-11T12:46:37;7.70;;;6.90;;
65279;SDS011;51878;55.748;48.742;2022-07-11T12:49:06;8.82;;;6.80;;
65279;SDS011;51878;55.748;48.742;2022-07-11T12:51:41;8.73;;;7.72;;
65279;SDS011;51878;55.748;48.742;2022-07-11T12:54:12;10.43;;;8.00;;
65279;SDS011;51878;55.748;48.742;2022-07-11T12:56:54;10.93;;;8.52;;
65279;SDS011;51878;55.748;48.742;2022-07-11T12:59:27;11.38;;;8.85;;
65279;SDS011;51878;55.748;48.742;2022-07-11T13:04:30;10.98;;;8.88;;
65279;SDS011;51878;55.748;48.742;2022-07-11T13:07:19;9.32;;;8.40;;
65279;SDS011;51878;55.748;48.742;2022-07-11T13:12:47;10.85;;;8.80;;
65279;SDS011;51878;55.748;48.742;2022-07-11T13:15:16;11.38;;;9.30;;
65279;SDS011;51878;55.748;48.742;2022-07-11T13:17:47;10.95;;;8.55;;
65279;SDS011;51878;55.748;48.742;2022-07-11T13:20:21;14.18;;;9.15;;
65279;SDS011;51878;55.748;48.742;2022-07-11T13:23:08;19.60;;;8.82;;
65279;SDS011;51878;55.748;48.742;2022-07-11T13:25:41;10.18;;;9.05;;
65279;SDS011;51878;55.748;48.742;2022-07-11T13:28:14;12.48;;;9.27;;
65279;SDS011;51878;55.748;48.742;2022-07-11T13:30:42;10.02;;;9.10;;
65279;SDS011;51878;55.748;48.742;2022-07-11T13:33:29;11.15;;;8.40;;
65279;SDS011;51878;55.748;48.742;2022-07-11T13:35:57;10.45;;;8.98;;
65279;SDS011;51878;55.748;48.742;2022-07-11T13:38:24;9.68;;;8.57;;
65279;SDS011;51878;55.748;48.742;2022-07-11T13:40:51;13.02;;;8.93;;
65279;SDS011;51878;55.748;48.742;2022-07-11T13:43:19;13.43;;;8.75;;
65279;SDS011;51878;55.748;48.742;2022-07-11T13:46:00;11.55;;;9.13;;
65279;SDS011;51878;55.748;48.742;2022-07-11T13:48:27;9.82;;;8.93;;
65279;SDS011;51878;55.748;48.742;2022-07-11T13:51:05;12.30;;;9.05;;
65279;SDS011;51878;55.748;48.742;2022-07-11T13:53:32;10.75;;;9.20;;
65279;SDS011;51878;55.748;48.742;2022-07-11T13:55:59;12.35;;;9.00;;
65279;SDS011;51878;55.748;48.742;2022-07-11T13:58:27;14.35;;;9.20;;
65279;SDS011;51878;55.748;48.742;2022-07-11T14:00:59;11.93;;;9.77;;
65279;SDS011;51878;55.748;48.742;2022-07-11T14:03:27;15.30;;;9.68;;
65279;SDS011;51878;55.748;48.742;2022-07-11T14:05:55;20.05;;;9.88;;
65279;SDS011;51878;55.748;48.742;2022-07-11T14:08:23;10.43;;;9.43;;
65279;SDS011;51878;55.748;48.742;2022-07-11T14:10:53;13.75;;;9.88;;
65279;SDS011;51878;55.748;48.742;2022-07-11T14:13:20;11.38;;;10.13;;
65279;SDS011;51878;55.748;48.742;2022-07-11T14:15:47;11.07;;;10.07;;
65279;SDS011;51878;55.748;48.742;2022-07-11T14:18:15;17.02;;;10.07;;
65279;SDS011;51878;55.748;48.742;2022-07-11T14:20:42;14.40;;;10.13;;
65279;SDS011;51878;55.748;48.742;2022-07-11T14:31:10;9.55;;;8.63;;
65279;SDS011;51878;55.748;48.742;2022-07-11T14:33:37;10.00;;;9.00;;
65279;SDS011;51878;55.748;48.742;2022-07-11T14:36:04;10.18;;;8.70;;
65279;SDS011;51878;55.748;48.742;2022-07-11T14:38:32;9.57;;;8.57;;
65279;SDS011;51878;55.748;48.742;2022-07-11T14:41:00;11.45;;;9.10;;
65279;SDS011;51878;55.748;48.742;2022-07-11T14:43:27;10.25;;;8.82;;
65279;SDS011;51878;55.748;48.742;2022-07-11T14:45:54;10.55;;;9.35;;
65279;SDS011;51878;55.748;48.742;2022-07-11T14:48:22;12.95;;;9.27;;
65279;SDS011;51878;55.748;48.742;2022-07-11T14:50:49;13.13;;;9.60;;
65279;SDS011;51878;55.748;48.742;2022-07-11T14:53:16;11.43;;;9.95;;
65279;SDS011;51878;55.748;48.742;2022-07-11T14:55:43;11.93;;;10.65;;
65279;SDS011;51878;55.748;48.742;2022-07-11T14:58:21;13.00;;;10.50;;
65279;SDS011;51878;55.748;48.742;2022-07-11T15:00:49;12.70;;;9.65;;
65279;SDS011;51878;55.748;48.742;2022-07-11T15:03:16;11.25;;;10.10;;
65279;SDS011;51878;55.748;48.742;2022-07-11T15:06:02;11.55;;;10.52;;
65279;SDS011;51878;55.748;48.742;2022-07-11T15:08:30;12.48;;;10.60;;
65279;SDS011;51878;55.748;48.742;2022-07-11T15:11:15;11.55;;;10.55;;
65279;SDS011;51878;55.748;48.742;2022-07-11T15:14:01;12.63;;;11.30;;
65279;SDS011;51878;55.748;48.742;2022-07-11T15:16:29;13.43;;;11.60;;
65279;SDS011;51878;55.748;48.742;2022-07-11T15:18:58;13.50;;;11.10;;
65279;SDS011;51878;55.748;48.742;2022-07-11T15:21:30;12.00;;;10.80;;
65279;SDS011;51878;55.748;48.742;2022-07-11T15:23:57;15.93;;;12.15;;
65279;SDS011;51878;55.748;48.742;2022-07-11T15:26:25;13.23;;;11.93;;
65279;SDS011;51878;55.748;48.742;2022-07-11T15:28:52;13.15;;;11.63;;
65279;SDS011;51878;55.748;48.742;2022-07-11T15:31:19;18.60;;;12.32;;
65279;SDS011;51878;55.748;48.742;2022-07-11T15:33:48;14.07;;;12.68;;
65279;SDS011;51878;55.748;48.742;2022-07-11T15:36:16;19.67;;;12.55;;
65279;SDS011;51878;55.748;48.742;2022-07-11T15:38:44;13.65;;;12.18;;
65279;SDS011;51878;55.748;48.742;2022-07-11T15:41:15;15.00;;;12.63;;